sensor_id;sensor_type;location;lat;lon;timestamp;temperature;humidity
421;DHT22;63667;49.046;8.468;2023-02-18T00:01:31;13.20;99.60
421;DHT22;63667;49.046;8.468;2023-02-18T00:03:59;13.20;99.60
421;DHT22;63667;49.046;8.468;2023-02-18T00:06:28;13.20;99.60
421;DHT22;63667;49.046;8.468;2023-02-18T00:08:56;13.20;99.60
421;DHT22;63667;49.046;8.468;2023-02-18T00:13:55;13.20;99.60
421;DHT22;63667;49.046;8.468;2023-02-18T00:16:23;13.20;99.60
421;DHT22;63667;49.046;8.468;2023-02-18T00:18:55;13.20;99.60
421;DHT22;63667;49.046;8.468;2023-02-18T00:21:23;13.20;99.60
421;DHT22;63667;49.046;8.468;2023-02-18T00:23:50;13.20;99.60
421;DHT22;63667;49.046;8.468;2023-02-18T00:26:19;13.20;99.60
421;DHT22;63667;49.046;8.468;2023-02-18T00:28:47;13.30;99.60
421;DHT22;63667;49.046;8.468;2023-02-18T00:36:13;13.30;99.60
421;DHT22;63667;49.046;8.468;2023-02-18T00:38:44;13.30;99.60
421;DHT22;63667;49.046;8.468;2023-02-18T00:41:12;13.30;99.60
421;DHT22;63667;49.046;8.468;2023-02-18T00:43:39;13.30;99.60
421;DHT22;63667;49.046;8.468;2023-02-18T00:46:06;13.30;99.60
421;DHT22;63667;49.046;8.468;2023-02-18T00:48:34;13.30;99.60
421;DHT22;63667;49.046;8.468;2023-02-18T00:51:03;13.20;99.60
421;DHT22;63667;49.046;8.468;2023-02-18T00:53:31;13.20;99.60
421;DHT22;63667;49.046;8.468;2023-02-18T00:55:59;13.20;99.60
421;DHT22;63667;49.046;8.468;2023-02-18T00:58:26;13.10;99.60
421;DHT22;63667;49.046;8.468;2023-02-18T01:00:54;13.10;99.60
421;DHT22;63667;49.046;8.468;2023-02-18T01:03:22;13.10;99.60
421;DHT22;63667;49.046;8.468;2023-02-18T01:05:49;13.10;99.60
421;DHT22;63667;49.046;8.468;2023-02-18T01:08:18;13.10;99.60
421;DHT22;63667;49.046;8.468;2023-02-18T01:10:46;13.10;99.60
421;DHT22;63667;49.046;8.468;2023-02-18T01:13:16;13.10;99.60
421;DHT22;63667;49.046;8.468;2023-02-18T01:15:43;13.10;99.60
421;DHT22;63667;49.046;8.468;2023-02-18T01:25:33;13.20;99.60
421;DHT22;63667;49.046;8.468;2023-02-18T01:28:05;13.10;99.60
421;DHT22;63667;49.046;8.468;2023-02-18T01:33:00;13.10;99.60
421;DHT22;63667;49.046;8.468;2023-02-18T01:35:27;13.10;99.60
421;DHT22;63667;49.046;8.468;2023-02-18T01:37:54;13.00;99.60
421;DHT22;63667;49.046;8.468;2023-02-18T01:40:24;13.00;99.60
421;DHT22;63667;49.046;8.468;2023-02-18T01:42:51;13.00;99.60
421;DHT22;63667;49.046;8.468;2023-02-18T01:48:33;13.00;99.60
421;DHT22;63667;49.046;8.468;2023-02-18T01:51:09;13.00;99.60
421;DHT22;63667;49.046;8.468;2023-02-18T01:53:48;13.00;99.60
421;DHT22;63667;49.046;8.468;2023-02-18T02:01:15;13.10;99.60
421;DHT22;63667;49.046;8.468;2023-02-18T02:03:42;13.00;99.60
421;DHT22;63667;49.046;8.468;2023-02-18T02:06:17;13.00;99.60
421;DHT22;63667;49.046;8.468;2023-02-18T02:11:27;13.00;99.60
421;DHT22;63667;49.046;8.468;2023-02-18T02:16:53;12.90;99.60
421;DHT22;63667;49.046;8.468;2023-02-18T02:28:39;12.80;99.60
421;DHT22;63667;49.046;8.468;2023-02-18T02:37:07;12.70;99.60
421;DHT22;63667;49.046;8.468;2023-02-18T02:55:28;12.50;99.60
421;DHT22;63667;49.046;8.468;2023-02-18T03:11:15;12.40;99.60
421;DHT22;63667;49.046;8.468;2023-02-18T03:22:06;12.40;99.60
421;DHT22;63667;49.046;8.468;2023-02-18T03:27:13;12.40;99.60
421;DHT22;63667;49.046;8.468;2023-02-18T03:29:42;12.40;99.60
421;DHT22;63667;49.046;8.468;2023-02-18T03:32:18;12.40;99.60
421;DHT22;63667;49.046;8.468;2023-02-18T03:39:53;12.40;99.60
421;DHT22;63667;49.046;8.468;2023-02-18T03:44:52;12.50;99.60
421;DHT22;63667;49.046;8.468;2023-02-18T03:49:47;12.50;99.60
421;DHT22;63667;49.046;8.468;2023-02-18T03:52:16;12.50;99.60
421;DHT22;63667;49.046;8.468;2023-02-18T03:54:43;12.50;99.60
421;DHT22;63667;49.046;8.468;2023-02-18T03:57:12;12.50;99.60
421;DHT22;63667;49.046;8.468;2023-02-18T04:09:29;12.40;99.60
421;DHT22;63667;49.046;8.468;2023-02-18T04:14:24;12.40;99.60
421;DHT22;63667;49.046;8.468;2023-02-18T04:16:51;12.40;99.60
421;DHT22;63667;49.046;8.468;2023-02-18T04:19:19;12.40;99.60
421;DHT22;63667;49.046;8.468;2023-02-18T04:21:46;12.40;99.60
421;DHT22;63667;49.046;8.468;2023-02-18T04:31:37;12.40;99.60
421;DHT22;63667;49.046;8.468;2023-02-18T04:34:05;12.30;99.60
421;DHT22;63667;49.046;8.468;2023-02-18T04:36:33;12.30;99.60
421;DHT22;63667;49.046;8.468;2023-02-18T04:48:52;12.20;99.60
421;DHT22;63667;49.046;8.468;2023-02-18T04:51:21;12.20;99.60
421;DHT22;63667;49.046;8.468;2023-02-18T04:53:48;12.20;99.60
421;DHT22;63667;49.046;8.468;2023-02-18T04:58:44;12.20;99.60
421;DHT22;63667;49.046;8.468;2023-02-18T05:01:13;12.20;99.60
421;DHT22;63667;49.046;8.468;2023-02-18T05:08:35;12.20;99.60
421;DHT22;63667;49.046;8.468;2023-02-18T05:11:07;12.20;99.60
421;DHT22;63667;49.046;8.468;2023-02-18T05:13:34;12.10;99.60
421;DHT22;63667;49.046;8.468;2023-02-18T05:18:30;12.20;99.60
421;DHT22;63667;49.046;8.468;2023-02-18T05:20:58;12.20;99.60
421;DHT22;63667;49.046;8.468;2023-02-18T05:23:26;12.10;99.60
421;DHT22;63667;49.046;8.468;2023-02-18T05:25:53;12.20;99.60
421;DHT22;63667;49.046;8.468;2023-02-18T05:28:21;12.20;99.60
421;DHT22;63667;49.046;8.468;2023-02-18T05:30:49;12.10;99.60
421;DHT22;63667;49.046;8.468;2023-02-18T05:33:16;12.10;99.60
421;DHT22;63667;49.046;8.468;2023-02-18T05:35:43;12.10;99.60
421;DHT22;63667;49.046;8.468;2023-02-18T05:38:10;12.10;99.60
421;DHT22;63667;49.046;8.468;2023-02-18T05:40:37;12.10;99.60
421;DHT22;63667;49.046;8.468;2023-02-18T05:43:05;12.10;99.60
421;DHT22;63667;49.046;8.468;2023-02-18T05:45:34;12.10;99.60
421;DHT22;63667;49.046;8.468;2023-02-18T05:48:04;12.10;99.60
421;DHT22;63667;49.046;8.468;2023-02-18T05:52:58;12.10;99.60
421;DHT22;63667;49.046;8.468;2023-02-18T05:55:25;12.10;99.60
421;DHT22;63667;49.046;8.468;2023-02-18T05:57:52;12.10;99.60
421;DHT22;63667;49.046;8.468;2023-02-18T06:00:20;12.20;99.60
421;DHT22;63667;49.046;8.468;2023-02-18T06:05:16;12.20;99.60
421;DHT22;63667;49.046;8.468;2023-02-18T06:07:44;12.20;99.60
421;DHT22;63667;49.046;8.468;2023-02-18T06:10:12;12.20;99.60
421;DHT22;63667;49.046;8.468;2023-02-18T06:12:40;12.20;99.60
421;DHT22;63667;49.046;8.468;2023-02-18T06:15:08;12.20;99.60
421;DHT22;63667;49.046;8.468;2023-02-18T06:17:35;12.20;99.60
421;DHT22;63667;49.046;8.468;2023-02-18T06:20:02;12.20;99.60
421;DHT22;63667;49.046;8.468;2023-02-18T06:22:29;12.20;99.60
421;DHT22;63667;49.046;8.468;2023-02-18T06:24:57;12.20;99.60
421;DHT22;63667;49.046;8.468;2023-02-18T06:27:25;12.20;99.60
421;DHT22;63667;49.046;8.468;2023-02-18T06:29:53;12.20;99.60
421;DHT22;63667;49.046;8.468;2023-02-18T06:32:20;12.20;99.60
421;DHT22;63667;49.046;8.468;2023-02-18T06:34:48;12.20;99.60
421;DHT22;63667;49.046;8.468;2023-02-18T06:37:16;12.20;99.60
421;DHT22;63667;49.046;8.468;2023-02-18T06:39:43;12.20;99.60
421;DHT22;63667;49.046;8.468;2023-02-18T06:42:11;12.30;99.60
421;DHT22;63667;49.046;8.468;2023-02-18T06:44:39;12.30;99.60
421;DHT22;63667;49.046;8.468;2023-02-18T06:47:07;12.30;99.60
421;DHT22;63667;49.046;8.468;2023-02-18T06:49:35;12.30;99.60
421;DHT22;63667;49.046;8.468;2023-02-18T06:52:05;12.30;99.60
421;DHT22;63667;49.046;8.468;2023-02-18T06:54:33;12.30;99.60
421;DHT22;63667;49.046;8.468;2023-02-18T06:57:04;12.30;99.60
421;DHT22;63667;49.046;8.468;2023-02-18T06:59:32;12.40;99.60
421;DHT22;63667;49.046;8.468;2023-02-18T07:02:00;12.40;99.60
421;DHT22;63667;49.046;8.468;2023-02-18T07:04:28;12.40;99.60
421;DHT22;63667;49.046;8.468;2023-02-18T07:06:55;12.50;99.60
421;DHT22;63667;49.046;8.468;2023-02-18T07:09:22;12.50;99.60
421;DHT22;63667;49.046;8.468;2023-02-18T07:11:49;12.50;99.60
421;DHT22;63667;49.046;8.468;2023-02-18T07:14:17;12.60;99.60
421;DHT22;63667;49.046;8.468;2023-02-18T07:16:44;12.60;99.60
421;DHT22;63667;49.046;8.468;2023-02-18T07:19:12;12.70;99.60
421;DHT22;63667;49.046;8.468;2023-02-18T07:21:39;12.70;99.60
421;DHT22;63667;49.046;8.468;2023-02-18T07:24:08;12.80;99.60
421;DHT22;63667;49.046;8.468;2023-02-18T07:26:35;12.80;99.60
421;DHT22;63667;49.046;8.468;2023-02-18T07:29:02;12.90;99.60
421;DHT22;63667;49.046;8.468;2023-02-18T07:31:29;12.90;99.60
421;DHT22;63667;49.046;8.468;2023-02-18T07:33:56;13.00;99.60
421;DHT22;63667;49.046;8.468;2023-02-18T07:36:23;13.10;99.60
421;DHT22;63667;49.046;8.468;2023-02-18T07:38:50;13.10;99.60
421;DHT22;63667;49.046;8.468;2023-02-18T07:41:18;13.10;99.60
421;DHT22;63667;49.046;8.468;2023-02-18T07:43:46;13.20;99.60
421;DHT22;63667;49.046;8.468;2023-02-18T07:46:13;13.30;99.60
421;DHT22;63667;49.046;8.468;2023-02-18T07:48:40;13.30;99.60
421;DHT22;63667;49.046;8.468;2023-02-18T07:51:09;13.30;99.60
421;DHT22;63667;49.046;8.468;2023-02-18T07:53:36;13.30;99.60
421;DHT22;63667;49.046;8.468;2023-02-18T07:56:03;13.40;99.60
421;DHT22;63667;49.046;8.468;2023-02-18T07:58:33;13.40;99.60
421;DHT22;63667;49.046;8.468;2023-02-18T08:01:07;13.50;99.60
421;DHT22;63667;49.046;8.468;2023-02-18T08:03:34;13.50;99.60
421;DHT22;63667;49.046;8.468;2023-02-18T08:06:03;13.60;99.60
421;DHT22;63667;49.046;8.468;2023-02-18T08:08:31;13.70;99.60
421;DHT22;63667;49.046;8.468;2023-02-18T08:11:00;13.70;99.60
421;DHT22;63667;49.046;8.468;2023-02-18T08:13:31;13.80;99.60
421;DHT22;63667;49.046;8.468;2023-02-18T08:15:58;13.80;99.60
421;DHT22;63667;49.046;8.468;2023-02-18T08:18:25;13.80;99.60
421;DHT22;63667;49.046;8.468;2023-02-18T08:20:52;13.80;99.60
421;DHT22;63667;49.046;8.468;2023-02-18T08:23:20;13.90;99.60
421;DHT22;63667;49.046;8.468;2023-02-18T08:25:48;14.00;99.60
421;DHT22;63667;49.046;8.468;2023-02-18T08:28:16;14.00;99.60
421;DHT22;63667;49.046;8.468;2023-02-18T08:30:48;14.00;99.60
421;DHT22;63667;49.046;8.468;2023-02-18T08:33:16;14.00;99.60
421;DHT22;63667;49.046;8.468;2023-02-18T08:35:44;14.00;99.60
421;DHT22;63667;49.046;8.468;2023-02-18T08:38:10;14.00;99.60
421;DHT22;63667;49.046;8.468;2023-02-18T08:40:37;14.00;99.60
421;DHT22;63667;49.046;8.468;2023-02-18T08:43:03;14.00;99.60
421;DHT22;63667;49.046;8.468;2023-02-18T08:45:29;14.10;99.60
421;DHT22;63667;49.046;8.468;2023-02-18T08:47:55;14.10;99.60
421;DHT22;63667;49.046;8.468;2023-02-18T08:50:21;14.20;99.60
421;DHT22;63667;49.046;8.468;2023-02-18T08:52:51;14.30;99.60
421;DHT22;63667;49.046;8.468;2023-02-18T08:55:18;14.30;99.60
421;DHT22;63667;49.046;8.468;2023-02-18T08:57:49;14.30;99.60
421;DHT22;63667;49.046;8.468;2023-02-18T09:00:16;14.30;99.60
421;DHT22;63667;49.046;8.468;2023-02-18T09:02:42;14.50;99.60
421;DHT22;63667;49.046;8.468;2023-02-18T09:05:09;14.50;99.60
421;DHT22;63667;49.046;8.468;2023-02-18T09:07:36;14.50;99.60
421;DHT22;63667;49.046;8.468;2023-02-18T09:10:03;14.30;99.60
421;DHT22;63667;49.046;8.468;2023-02-18T09:14:56;14.40;99.60
421;DHT22;63667;49.046;8.468;2023-02-18T09:17:22;14.40;99.60
421;DHT22;63667;49.046;8.468;2023-02-18T09:19:48;14.30;99.60
421;DHT22;63667;49.046;8.468;2023-02-18T09:22:14;14.30;99.60
421;DHT22;63667;49.046;8.468;2023-02-18T09:24:41;14.30;99.60
421;DHT22;63667;49.046;8.468;2023-02-18T09:27:08;14.30;99.60
421;DHT22;63667;49.046;8.468;2023-02-18T09:29:37;14.30;99.60
421;DHT22;63667;49.046;8.468;2023-02-18T09:32:05;14.40;99.60
421;DHT22;63667;49.046;8.468;2023-02-18T09:34:31;14.50;99.60
421;DHT22;63667;49.046;8.468;2023-02-18T09:36:57;14.60;99.60
421;DHT22;63667;49.046;8.468;2023-02-18T09:39:24;14.50;99.60
421;DHT22;63667;49.046;8.468;2023-02-18T09:42:04;14.60;99.60
421;DHT22;63667;49.046;8.468;2023-02-18T09:44:41;14.60;99.60
421;DHT22;63667;49.046;8.468;2023-02-18T09:47:39;14.60;99.60
421;DHT22;63667;49.046;8.468;2023-02-18T09:50:13;14.60;99.60
421;DHT22;63667;49.046;8.468;2023-02-18T09:52:43;14.60;99.60
421;DHT22;63667;49.046;8.468;2023-02-18T09:55:19;14.70;99.60
421;DHT22;63667;49.046;8.468;2023-02-18T09:57:55;14.80;99.60
421;DHT22;63667;49.046;8.468;2023-02-18T10:00:27;14.70;99.60
421;DHT22;63667;49.046;8.468;2023-02-18T10:03:00;14.60;99.60
421;DHT22;63667;49.046;8.468;2023-02-18T10:05:29;14.70;99.60
421;DHT22;63667;49.046;8.468;2023-02-18T10:08:06;14.80;99.60
421;DHT22;63667;49.046;8.468;2023-02-18T10:10:41;14.90;99.60
421;DHT22;63667;49.046;8.468;2023-02-18T10:13:16;15.00;99.60
421;DHT22;63667;49.046;8.468;2023-02-18T10:15:43;14.80;99.60
421;DHT22;63667;49.046;8.468;2023-02-18T10:20:43;14.80;99.60
421;DHT22;63667;49.046;8.468;2023-02-18T10:23:09;14.80;99.60
421;DHT22;63667;49.046;8.468;2023-02-18T10:25:42;14.80;99.60
421;DHT22;63667;49.046;8.468;2023-02-18T10:28:10;14.80;99.60
421;DHT22;63667;49.046;8.468;2023-02-18T10:30:41;14.90;99.60
421;DHT22;63667;49.046;8.468;2023-02-18T10:33:34;15.00;99.60
421;DHT22;63667;49.046;8.468;2023-02-18T10:36:28;15.00;99.60
421;DHT22;63667;49.046;8.468;2023-02-18T10:42:00;15.10;99.60
421;DHT22;63667;49.046;8.468;2023-02-18T10:44:52;15.00;99.60
421;DHT22;63667;49.046;8.468;2023-02-18T10:52:44;15.00;99.60
421;DHT22;63667;49.046;8.468;2023-02-18T10:55:15;15.10;99.60
421;DHT22;63667;49.046;8.468;2023-02-18T10:57:49;15.10;99.60
421;DHT22;63667;49.046;8.468;2023-02-18T11:00:17;15.30;99.60
421;DHT22;63667;49.046;8.468;2023-02-18T11:02:45;15.30;99.60
421;DHT22;63667;49.046;8.468;2023-02-18T11:05:31;15.10;99.60
421;DHT22;63667;49.046;8.468;2023-02-18T11:08:00;15.30;99.60
421;DHT22;63667;49.046;8.468;2023-02-18T11:10:38;15.30;99.60
421;DHT22;63667;49.046;8.468;2023-02-18T11:13:07;15.40;99.60
421;DHT22;63667;49.046;8.468;2023-02-18T11:15:35;15.80;99.60
421;DHT22;63667;49.046;8.468;2023-02-18T11:18:29;15.90;99.60
421;DHT22;63667;49.046;8.468;2023-02-18T11:21:01;15.60;99.60
421;DHT22;63667;49.046;8.468;2023-02-18T11:23:28;16.00;99.60
421;DHT22;63667;49.046;8.468;2023-02-18T11:31:21;16.00;99.60
421;DHT22;63667;49.046;8.468;2023-02-18T11:33:57;15.70;99.60
421;DHT22;63667;49.046;8.468;2023-02-18T11:36:28;16.00;99.60
421;DHT22;63667;49.046;8.468;2023-02-18T11:41:33;16.40;99.60
421;DHT22;63667;49.046;8.468;2023-02-18T11:44:00;16.40;99.60
421;DHT22;63667;49.046;8.468;2023-02-18T11:46:28;16.00;99.60
421;DHT22;63667;49.046;8.468;2023-02-18T11:48:54;15.90;99.60
421;DHT22;63667;49.046;8.468;2023-02-18T11:51:25;15.60;99.60
421;DHT22;63667;49.046;8.468;2023-02-18T11:54:18;15.50;99.60
421;DHT22;63667;49.046;8.468;2023-02-18T11:56:55;15.70;99.60
421;DHT22;63667;49.046;8.468;2023-02-18T11:59:22;15.60;99.60
421;DHT22;63667;49.046;8.468;2023-02-18T12:02:21;15.40;99.60
421;DHT22;63667;49.046;8.468;2023-02-18T12:05:21;15.30;99.60
421;DHT22;63667;49.046;8.468;2023-02-18T12:08:10;15.30;99.60
421;DHT22;63667;49.046;8.468;2023-02-18T12:10:50;15.20;99.60
421;DHT22;63667;49.046;8.468;2023-02-18T12:18:56;15.30;99.60
421;DHT22;63667;49.046;8.468;2023-02-18T12:24:36;15.00;99.60
421;DHT22;63667;49.046;8.468;2023-02-18T12:27:28;15.00;99.60
421;DHT22;63667;49.046;8.468;2023-02-18T12:38:49;15.10;99.60
421;DHT22;63667;49.046;8.468;2023-02-18T12:47:22;14.90;99.60
421;DHT22;63667;49.046;8.468;2023-02-18T13:01:21;15.20;99.60
421;DHT22;63667;49.046;8.468;2023-02-18T13:04:02;15.30;99.60
421;DHT22;63667;49.046;8.468;2023-02-18T13:14:42;14.90;99.60
421;DHT22;63667;49.046;8.468;2023-02-18T13:17:10;14.80;99.60
421;DHT22;63667;49.046;8.468;2023-02-18T13:19:49;14.80;99.60
421;DHT22;63667;49.046;8.468;2023-02-18T13:22:19;14.80;99.60
421;DHT22;63667;49.046;8.468;2023-02-18T13:24:48;14.80;99.60
421;DHT22;63667;49.046;8.468;2023-02-18T13:27:51;15.10;99.60
421;DHT22;63667;49.046;8.468;2023-02-18T13:40:52;15.40;99.60
421;DHT22;63667;49.046;8.468;2023-02-18T13:49:18;15.70;99.60
421;DHT22;63667;49.046;8.468;2023-02-18T13:51:44;15.60;99.60
421;DHT22;63667;49.046;8.468;2023-02-18T13:56:41;15.60;99.60
421;DHT22;63667;49.046;8.468;2023-02-18T14:01:53;15.80;99.60
421;DHT22;63667;49.046;8.468;2023-02-18T14:17:48;16.30;99.60
421;DHT22;63667;49.046;8.468;2023-02-18T14:22:51;16.00;99.60
421;DHT22;63667;49.046;8.468;2023-02-18T14:28:02;15.70;99.60
421;DHT22;63667;49.046;8.468;2023-02-18T14:30:40;15.60;99.60
421;DHT22;63667;49.046;8.468;2023-02-18T14:33:14;15.50;99.60
421;DHT22;63667;49.046;8.468;2023-02-18T14:36:08;15.40;99.60
421;DHT22;63667;49.046;8.468;2023-02-18T14:39:01;15.30;99.60
421;DHT22;63667;49.046;8.468;2023-02-18T14:41:44;15.40;99.60
421;DHT22;63667;49.046;8.468;2023-02-18T14:44:44;15.40;99.60
421;DHT22;63667;49.046;8.468;2023-02-18T14:47:24;15.30;99.60
421;DHT22;63667;49.046;8.468;2023-02-18T14:49:58;15.20;99.60
421;DHT22;63667;49.046;8.468;2023-02-18T14:52:39;15.20;99.60
421;DHT22;63667;49.046;8.468;2023-02-18T14:55:18;15.20;99.60
421;DHT22;63667;49.046;8.468;2023-02-18T14:57:58;15.10;99.60
421;DHT22;63667;49.046;8.468;2023-02-18T15:00:28;15.00;99.60
421;DHT22;63667;49.046;8.468;2023-02-18T15:03:00;15.00;99.60
421;DHT22;63667;49.046;8.468;2023-02-18T15:05:28;15.00;99.60
421;DHT22;63667;49.046;8.468;2023-02-18T15:08:00;14.90;99.60
421;DHT22;63667;49.046;8.468;2023-02-18T15:10:43;14.90;99.60
421;DHT22;63667;49.046;8.468;2023-02-18T15:15:51;14.90;99.60
421;DHT22;63667;49.046;8.468;2023-02-18T15:18:36;14.80;99.60
421;DHT22;63667;49.046;8.468;2023-02-18T15:21:04;14.70;99.60
421;DHT22;63667;49.046;8.468;2023-02-18T15:23:35;14.70;99.60
421;DHT22;63667;49.046;8.468;2023-02-18T15:26:02;14.70;99.60
421;DHT22;63667;49.046;8.468;2023-02-18T15:28:31;14.80;99.60
421;DHT22;63667;49.046;8.468;2023-02-18T15:31:00;14.70;99.60
421;DHT22;63667;49.046;8.468;2023-02-18T15:33:26;14.70;99.60
421;DHT22;63667;49.046;8.468;2023-02-18T15:36:04;14.60;99.60
421;DHT22;63667;49.046;8.468;2023-02-18T15:38:31;14.50;99.60
421;DHT22;63667;49.046;8.468;2023-02-18T15:40:58;14.50;99.60
421;DHT22;63667;49.046;8.468;2023-02-18T15:43:26;14.40;99.60
421;DHT22;63667;49.046;8.468;2023-02-18T15:45:55;14.30;99.60
421;DHT22;63667;49.046;8.468;2023-02-18T15:48:28;14.30;99.60
421;DHT22;63667;49.046;8.468;2023-02-18T15:50:57;14.30;99.60
421;DHT22;63667;49.046;8.468;2023-02-18T15:53:28;14.30;99.60
421;DHT22;63667;49.046;8.468;2023-02-18T15:55:56;14.20;99.60
421;DHT22;63667;49.046;8.468;2023-02-18T15:58:30;14.20;99.60
421;DHT22;63667;49.046;8.468;2023-02-18T16:00:59;14.20;99.60
421;DHT22;63667;49.046;8.468;2023-02-18T16:06:27;14.00;99.60
421;DHT22;63667;49.046;8.468;2023-02-18T16:09:13;14.00;99.60
421;DHT22;63667;49.046;8.468;2023-02-18T16:11:48;14.00;99.60
421;DHT22;63667;49.046;8.468;2023-02-18T16:14:29;13.90;99.60
421;DHT22;63667;49.046;8.468;2023-02-18T16:19:33;13.80;99.60
421;DHT22;63667;49.046;8.468;2023-02-18T16:22:04;13.80;99.60
421;DHT22;63667;49.046;8.468;2023-02-18T16:24:39;13.70;99.60
421;DHT22;63667;49.046;8.468;2023-02-18T16:27:13;13.70;99.60
421;DHT22;63667;49.046;8.468;2023-02-18T16:29:41;13.60;99.60
421;DHT22;63667;49.046;8.468;2023-02-18T16:32:07;13.50;99.60
421;DHT22;63667;49.046;8.468;2023-02-18T16:34:33;13.50;99.60
421;DHT22;63667;49.046;8.468;2023-02-18T16:37:01;13.50;99.60
421;DHT22;63667;49.046;8.468;2023-02-18T16:39:48;13.40;99.60
421;DHT22;63667;49.046;8.468;2023-02-18T16:42:14;13.30;99.60
421;DHT22;63667;49.046;8.468;2023-02-18T16:44:40;13.20;99.60
421;DHT22;63667;49.046;8.468;2023-02-18T16:47:09;13.20;99.60
421;DHT22;63667;49.046;8.468;2023-02-18T16:49:36;13.20;99.60
421;DHT22;63667;49.046;8.468;2023-02-18T16:52:07;13.20;99.60
421;DHT22;63667;49.046;8.468;2023-02-18T16:54:33;13.20;99.60
421;DHT22;63667;49.046;8.468;2023-02-18T16:57:00;13.10;99.60
421;DHT22;63667;49.046;8.468;2023-02-18T16:59:26;13.10;99.60
421;DHT22;63667;49.046;8.468;2023-02-18T17:01:52;13.10;99.60
421;DHT22;63667;49.046;8.468;2023-02-18T17:04:18;13.00;99.60
421;DHT22;63667;49.046;8.468;2023-02-18T17:06:45;13.00;99.60
421;DHT22;63667;49.046;8.468;2023-02-18T17:09:13;13.00;99.60
421;DHT22;63667;49.046;8.468;2023-02-18T17:11:43;13.00;99.60
421;DHT22;63667;49.046;8.468;2023-02-18T17:14:13;12.90;99.60
421;DHT22;63667;49.046;8.468;2023-02-18T17:16:40;12.90;99.60
421;DHT22;63667;49.046;8.468;2023-02-18T17:19:06;12.80;99.60
421;DHT22;63667;49.046;8.468;2023-02-18T17:21:32;12.70;99.60
421;DHT22;63667;49.046;8.468;2023-02-18T17:23:58;12.70;99.60
421;DHT22;63667;49.046;8.468;2023-02-18T17:26:26;12.70;99.60
421;DHT22;63667;49.046;8.468;2023-02-18T17:28:55;12.60;99.60
421;DHT22;63667;49.046;8.468;2023-02-18T17:31:37;12.60;99.60
421;DHT22;63667;49.046;8.468;2023-02-18T17:34:06;12.50;99.60
421;DHT22;63667;49.046;8.468;2023-02-18T17:36:33;12.50;99.60
421;DHT22;63667;49.046;8.468;2023-02-18T17:38:59;12.50;99.60
421;DHT22;63667;49.046;8.468;2023-02-18T17:41:26;12.50;99.60
421;DHT22;63667;49.046;8.468;2023-02-18T17:43:52;12.40;99.60
421;DHT22;63667;49.046;8.468;2023-02-18T17:46:18;12.40;99.60
421;DHT22;63667;49.046;8.468;2023-02-18T17:48:45;12.40;99.60
421;DHT22;63667;49.046;8.468;2023-02-18T17:51:26;12.40;99.60
421;DHT22;63667;49.046;8.468;2023-02-18T17:53:52;12.40;99.60
421;DHT22;63667;49.046;8.468;2023-02-18T17:56:19;12.40;99.60
421;DHT22;63667;49.046;8.468;2023-02-18T17:58:45;12.40;99.60
421;DHT22;63667;49.046;8.468;2023-02-18T18:01:12;12.40;99.60
421;DHT22;63667;49.046;8.468;2023-02-18T18:03:38;12.40;99.60
421;DHT22;63667;49.046;8.468;2023-02-18T18:06:09;12.40;99.60
421;DHT22;63667;49.046;8.468;2023-02-18T18:08:39;12.40;99.60
421;DHT22;63667;49.046;8.468;2023-02-18T18:11:05;12.40;99.60
421;DHT22;63667;49.046;8.468;2023-02-18T18:13:31;12.30;99.60
421;DHT22;63667;49.046;8.468;2023-02-18T18:15:58;12.30;99.60
421;DHT22;63667;49.046;8.468;2023-02-18T18:18:25;12.40;99.60
421;DHT22;63667;49.046;8.468;2023-02-18T18:20:55;12.40;99.60
421;DHT22;63667;49.046;8.468;2023-02-18T18:23:22;12.40;99.60
421;DHT22;63667;49.046;8.468;2023-02-18T18:25:53;12.30;99.60
421;DHT22;63667;49.046;8.468;2023-02-18T18:28:21;12.30;99.60
421;DHT22;63667;49.046;8.468;2023-02-18T18:30:50;12.30;99.60
421;DHT22;63667;49.046;8.468;2023-02-18T18:33:25;12.20;99.60
421;DHT22;63667;49.046;8.468;2023-02-18T18:35:53;12.20;99.60
421;DHT22;63667;49.046;8.468;2023-02-18T18:38:21;12.20;99.60
421;DHT22;63667;49.046;8.468;2023-02-18T18:40:49;12.20;99.60
421;DHT22;63667;49.046;8.468;2023-02-18T18:43:18;12.20;99.60
421;DHT22;63667;49.046;8.468;2023-02-18T18:45:45;12.20;99.60
421;DHT22;63667;49.046;8.468;2023-02-18T18:48:11;12.20;99.60
421;DHT22;63667;49.046;8.468;2023-02-18T18:50:37;12.10;99.60
421;DHT22;63667;49.046;8.468;2023-02-18T18:53:05;12.10;99.60
421;DHT22;63667;49.046;8.468;2023-02-18T18:55:36;12.00;99.60
421;DHT22;63667;49.046;8.468;2023-02-18T18:58:03;12.00;99.60
421;DHT22;63667;49.046;8.468;2023-02-18T19:00:33;12.00;99.60
421;DHT22;63667;49.046;8.468;2023-02-18T19:03:00;12.00;99.60
421;DHT22;63667;49.046;8.468;2023-02-18T19:05:32;12.00;99.60
421;DHT22;63667;49.046;8.468;2023-02-18T19:07:59;12.00;99.60
421;DHT22;63667;49.046;8.468;2023-02-18T19:10:32;12.00;99.60
421;DHT22;63667;49.046;8.468;2023-02-18T19:13:05;12.00;99.60
421;DHT22;63667;49.046;8.468;2023-02-18T19:15:32;12.00;99.60
421;DHT22;63667;49.046;8.468;2023-02-18T19:18:00;12.00;99.60
421;DHT22;63667;49.046;8.468;2023-02-18T19:20:33;12.00;99.60
421;DHT22;63667;49.046;8.468;2023-02-18T19:23:01;12.00;99.60
421;DHT22;63667;49.046;8.468;2023-02-18T19:25:27;12.00;99.60
421;DHT22;63667;49.046;8.468;2023-02-18T19:27:54;11.90;99.60
421;DHT22;63667;49.046;8.468;2023-02-18T19:30:24;11.90;99.60
421;DHT22;63667;49.046;8.468;2023-02-18T19:32:52;11.90;99.60
421;DHT22;63667;49.046;8.468;2023-02-18T19:35:19;11.80;99.60
421;DHT22;63667;49.046;8.468;2023-02-18T19:37:45;11.80;99.60
421;DHT22;63667;49.046;8.468;2023-02-18T19:40:15;11.80;99.60
421;DHT22;63667;49.046;8.468;2023-02-18T19:42:41;11.70;99.60
421;DHT22;63667;49.046;8.468;2023-02-18T19:45:08;11.70;99.60
421;DHT22;63667;49.046;8.468;2023-02-18T19:47:35;11.70;99.60
421;DHT22;63667;49.046;8.468;2023-02-18T19:50:02;11.70;99.60
421;DHT22;63667;49.046;8.468;2023-02-18T19:52:29;11.60;99.60
421;DHT22;63667;49.046;8.468;2023-02-18T19:54:55;11.60;99.60
421;DHT22;63667;49.046;8.468;2023-02-18T19:57:22;11.50;99.60
421;DHT22;63667;49.046;8.468;2023-02-18T19:59:48;11.50;99.60
421;DHT22;63667;49.046;8.468;2023-02-18T20:02:20;11.50;99.60
421;DHT22;63667;49.046;8.468;2023-02-18T20:04:46;11.50;99.60
421;DHT22;63667;49.046;8.468;2023-02-18T20:07:13;11.50;99.60
421;DHT22;63667;49.046;8.468;2023-02-18T20:09:40;11.40;99.60
421;DHT22;63667;49.046;8.468;2023-02-18T20:12:07;11.40;99.60
421;DHT22;63667;49.046;8.468;2023-02-18T20:14:35;11.40;99.60
421;DHT22;63667;49.046;8.468;2023-02-18T20:17:05;11.30;99.60
421;DHT22;63667;49.046;8.468;2023-02-18T20:19:32;11.30;99.60
421;DHT22;63667;49.046;8.468;2023-02-18T20:22:00;11.30;99.60
421;DHT22;63667;49.046;8.468;2023-02-18T20:24:28;11.30;99.60
421;DHT22;63667;49.046;8.468;2023-02-18T20:26:55;11.20;99.60
421;DHT22;63667;49.046;8.468;2023-02-18T20:29:22;11.20;99.60
421;DHT22;63667;49.046;8.468;2023-02-18T20:31:49;11.20;99.60
421;DHT22;63667;49.046;8.468;2023-02-18T20:34:15;11.10;99.60